Time,TemperatureF,DewpointF,PressureIn,WindDirection,WindDirectionDegrees,WindSpeedMPH,WindSpeedGustMPH,Humidity,HourlyPrecipIn,Conditions,Clouds,dailyrainin,SoftwareType,DateUTC
2013-10-15 00:01:00,52.4,46.4,30.00,NW,309,13.0,13.0,80,0.00,,,0.00,VWS V14.00,2013-10-15 05:01:00,
2013-10-15 00:06:00,52.3,46.3,30.00,West,281,12.0,16.0,80,0.00,,,0.00,VWS V14.00,2013-10-15 05:06:00,
2013-10-15 00:11:00,52.2,45.9,30.00,West,265,5.0,16.0,79,0.00,,,0.00,VWS V14.00,2013-10-15 05:11:00,
2013-10-15 00:16:00,52.1,45.8,30.00,West,281,0.0,16.0,79,0.00,,,0.00,VWS V14.00,2013-10-15 05:16:00,
2013-10-15 00:21:00,52.1,46.1,30.01,WSW,250,10.0,16.0,80,0.00,,,0.00,VWS V14.00,2013-10-15 05:21:00,
2013-10-15 00:26:00,51.9,45.9,30.01,West,277,9.0,16.0,80,0.00,,,0.00,VWS V14.00,2013-10-15 05:26:00,
2013-10-15 00:31:00,51.8,45.8,30.01,West,279,6.0,7.0,80,0.00,,,0.00,VWS V14.00,2013-10-15 05:31:00,
2013-10-15 00:36:00,51.7,45.4,30.01,WSW,250,6.0,22.0,79,0.00,,,0.00,VWS V14.00,2013-10-15 05:36:00,
2013-10-15 00:41:00,51.5,44.9,30.01,West,261,17.0,27.0,78,0.00,,,0.00,VWS V14.00,2013-10-15 05:41:00,
2013-10-15 00:45:00,51.3,44.3,30.01,WSW,244,27.0,27.0,77,0.00,,,0.00,VWS V14.00,2013-10-15 05:45:00,
2013-10-15 00:50:00,51.2,44.2,30.02,WSW,253,8.0,27.0,77,0.00,,,0.00,VWS V14.00,2013-10-15 05:50:00,
2013-10-15 00:55:00,51.0,44.0,30.02,West,276,13.0,27.0,77,0.00,,,0.00,VWS V14.00,2013-10-15 05:55:00,
2013-10-15 01:00:00,50.9,44.0,30.02,West,281,2.0,3.0,77,0.00,,,0.00,VWS V14.00,2013-10-15 06:00:00,
2013-10-15 01:05:00,50.7,43.8,30.02,West,281,14.0,19.0,77,0.00,,,0.00,VWS V14.00,2013-10-15 06:05:00,
2013-10-15 01:10:00,50.6,43.7,30.02,WSW,258,10.0,19.0,77,0.00,,,0.00,VWS V14.00,2013-10-15 06:10:00,
2013-10-15 01:15:00,50.5,43.9,30.03,WNW,301,7.0,19.0,78,0.00,,,0.00,VWS V14.00,2013-10-15 06:15:00,
2013-10-15 01:20:00,50.3,43.4,30.02,WNW,283,11.0,25.0,77,0.00,,,0.00,VWS V14.00,2013-10-15 06:20:00,
2013-10-15 01:25:00,50.1,43.2,30.03,WNW,288,11.0,25.0,77,0.00,,,0.00,VWS V14.00,2013-10-15 06:25:00,
2013-10-15 01:30:00,50.0,42.7,30.03,WNW,296,4.0,25.0,76,0.00,,,0.00,VWS V14.00,2013-10-15 06:30:00,
2013-10-15 01:35:00,49.9,42.7,30.04,WSW,244,11.0,19.0,76,0.00,,,0.00,VWS V14.00,2013-10-15 06:35:00,
2013-10-15 01:40:00,49.7,42.8,30.04,WNW,283,16.0,19.0,77,0.00,,,0.00,VWS V14.00,2013-10-15 06:40:00,
2013-10-15 01:45:00,49.5,42.6,30.04,WSW,245,11.0,21.0,77,0.00,,,0.00,VWS V14.00,2013-10-15 06:45:00,
2013-10-15 01:50:00,49.3,42.1,30.05,WNW,290,10.0,22.0,76,0.00,,,0.00,VWS V14.00,2013-10-15 06:50:00,
2013-10-15 01:55:00,49.0,41.4,30.05,West,280,8.0,22.0,75,0.00,,,0.00,VWS V14.00,2013-10-15 06:55:00,
2013-10-15 02:00:00,48.8,41.2,30.05,West,275,9.0,24.0,75,0.00,,,0.00,VWS V14.00,2013-10-15 07:00:00,
2013-10-15 02:05:00,48.6,41.4,30.05,WSW,257,3.0,14.0,76,0.00,,,0.00,VWS V14.00,2013-10-15 07:05:00,
2013-10-15 02:10:00,48.3,41.1,30.06,West,279,7.0,17.0,76,0.00,,,0.00,VWS V14.00,2013-10-15 07:10:00,
2013-10-15 02:15:00,48.1,41.2,30.06,SW,234,7.0,17.0,77,0.00,,,0.00,VWS V14.00,2013-10-15 07:15:00,
2013-10-15 02:20:00,48.0,41.2,30.06,WNW,285,9.0,17.0,77,0.00,,,0.00,VWS V14.00,2013-10-15 07:20:00,
2013-10-15 02:25:00,47.8,41.0,30.06,NW,309,2.0,18.0,77,0.00,,,0.00,VWS V14.00,2013-10-15 07:25:00,
2013-10-15 02:30:00,47.7,40.5,30.06,WNW,288,0.0,23.0,76,0.00,,,0.00,VWS V14.00,2013-10-15 07:30:00,
2013-10-15 02:35:00,47.6,40.4,30.07,WNW,284,11.0,26.0,76,0.00,,,0.00,VWS V14.00,2013-10-15 07:35:00,
2013-10-15 02:40:00,47.4,40.2,30.07,WNW,284,14.0,26.0,76,0.00,,,0.00,VWS V14.00,2013-10-15 07:40:00,
2013-10-15 02:45:00,47.3,39.8,30.07,WNW,290,13.0,26.0,75,0.00,,,0.00,VWS V14.00,2013-10-15 07:45:00,
2013-10-15 02:50:00,47.2,39.7,30.07,WNW,283,11.0,26.0,75,0.00,,,0.00,VWS V14.00,2013-10-15 07:50:00,
2013-10-15 02:55:00,47.1,39.6,30.07,West,262,10.0,26.0,75,0.00,,,0.00,VWS V14.00,2013-10-15 07:55:00,
2013-10-15 03:00:00,47.0,39.5,30.07,SW,219,6.0,26.0,75,0.00,,,0.00,VWS V14.00,2013-10-15 08:00:00,
2013-10-15 03:05:00,46.9,39.7,30.08,WNW,288,5.0,17.0,76,0.00,,,0.00,VWS V14.00,2013-10-15 08:05:00,
2013-10-15 03:10:00,46.9,39.7,30.08,WSW,252,11.0,20.0,76,0.00,,,0.00,VWS V14.00,2013-10-15 08:10:00,
2013-10-15 03:15:00,46.8,39.7,30.08,WSW,252,12.0,23.0,76,0.00,,,0.00,VWS V14.00,2013-10-15 08:15:00,
2013-10-15 03:20:00,46.8,39.7,30.08,West,265,5.0,23.0,76,0.00,,,0.00,VWS V14.00,2013-10-15 08:20:00,
2013-10-15 03:25:00,46.8,39.7,30.08,WNW,291,3.0,23.0,76,0.00,,,0.00,VWS V14.00,2013-10-15 08:25:00,
2013-10-15 03:30:00,46.7,39.5,30.08,West,273,10.0,23.0,76,0.00,,,0.00,VWS V14.00,2013-10-15 08:30:00,
2013-10-15 03:35:00,46.7,39.5,30.08,WSW,246,10.0,17.0,76,0.00,,,0.00,VWS V14.00,2013-10-15 08:35:00,
2013-10-15 03:40:00,46.6,39.5,30.08,West,273,6.0,17.0,76,0.00,,,0.00,VWS V14.00,2013-10-15 08:40:00,
2013-10-15 03:45:00,46.6,39.5,30.08,WNW,297,1.0,17.0,76,0.00,,,0.00,VWS V14.00,2013-10-15 08:45:00,
2013-10-15 03:50:00,46.5,39.4,30.08,West,277,6.0,18.0,76,0.00,,,0.00,VWS V14.00,2013-10-15 08:50:00,
2013-10-15 03:55:00,46.5,39.4,30.08,WSW,252,10.0,18.0,76,0.00,,,0.00,VWS V14.00,2013-10-15 08:55:00,
2013-10-15 04:00:00,46.6,39.5,30.08,WNW,294,8.0,18.0,76,0.00,,,0.00,VWS V14.00,2013-10-15 09:00:00,
2013-10-15 04:05:00,46.6,39.5,30.08,NNW,328,9.0,20.0,76,0.00,,,0.00,VWS V14.00,2013-10-15 09:05:00,
2013-10-15 04:10:00,46.6,39.1,30.08,West,269,15.0,20.0,75,0.00,,,0.00,VWS V14.00,2013-10-15 09:10:00,
2013-10-15 04:15:00,46.7,39.2,30.08,NW,305,7.0,20.0,75,0.00,,,0.00,VWS V14.00,2013-10-15 09:15:00,
2013-10-15 04:20:00,46.7,39.2,30.08,WNW,300,4.0,20.0,75,0.00,,,0.00,VWS V14.00,2013-10-15 09:20:00,
2013-10-15 04:25:00,46.7,39.2,30.08,West,281,3.0,23.0,75,0.00,,,0.00,VWS V14.00,2013-10-15 09:25:00,
2013-10-15 04:30:00,46.6,38.8,30.08,WNW,285,11.0,23.0,74,0.00,,,0.00,VWS V14.00,2013-10-15 09:30:00,
2013-10-15 04:35:00,46.6,39.1,30.08,SW,225,7.0,19.0,75,0.00,,,0.00,VWS V14.00,2013-10-15 09:35:00,
2013-10-15 04:40:00,46.5,38.7,30.08,WNW,292,16.0,22.0,74,0.00,,,0.00,VWS V14.00,2013-10-15 09:40:00,
2013-10-15 04:45:00,46.5,38.7,30.08,West,278,14.0,22.0,74,0.00,,,0.00,VWS V14.00,2013-10-15 09:45:00,
2013-10-15 04:50:00,46.5,38.7,30.08,NW,315,12.0,22.0,74,0.00,,,0.00,VWS V14.00,2013-10-15 09:50:00,
2013-10-15 04:55:00,46.4,38.6,30.09,WSW,252,5.0,22.0,74,0.00,,,0.00,VWS V14.00,2013-10-15 09:55:00,
2013-10-15 05:00:00,46.3,38.5,30.09,West,273,12.0,22.0,74,0.00,,,0.00,VWS V14.00,2013-10-15 10:00:00,
2013-10-15 05:05:00,46.3,38.5,30.09,WSW,243,6.0,17.0,74,0.00,,,0.00,VWS V14.00,2013-10-15 10:05:00,
2013-10-15 05:10:00,46.3,38.5,30.09,WNW,290,9.0,17.0,74,0.00,,,0.00,VWS V14.00,2013-10-15 10:10:00,
2013-10-15 05:15:00,46.3,38.5,30.09,West,266,7.0,18.0,74,0.00,,,0.00,VWS V14.00,2013-10-15 10:15:00,
2013-10-15 05:20:00,46.2,38.4,30.09,West,265,8.0,18.0,74,0.00,,,0.00,VWS V14.00,2013-10-15 10:20:00,
2013-10-15 05:25:00,46.2,38.4,30.09,WNW,284,12.0,18.0,74,0.00,,,0.00,VWS V14.00,2013-10-15 10:25:00,
2013-10-15 05:30:00,46.2,38.4,30.10,West,264,10.0,18.0,74,0.00,,,0.00,VWS V14.00,2013-10-15 10:30:00,
2013-10-15 05:35:00,46.2,38.4,30.09,West,264,5.0,18.0,74,0.00,,,0.00,VWS V14.00,2013-10-15 10:35:00,
2013-10-15 05:40:00,46.1,38.3,30.10,NW,309,5.0,18.0,74,0.00,,,0.00,VWS V14.00,2013-10-15 10:40:00,
2013-10-15 05:45:00,46.1,38.3,30.11,West,277,2.0,18.0,74,0.00,,,0.00,VWS V14.00,2013-10-15 10:45:00,
2013-10-15 05:50:00,46.1,38.3,30.10,NW,315,0.0,18.0,74,0.00,,,0.00,VWS V14.00,2013-10-15 10:50:00,
2013-10-15 05:55:00,46.0,38.2,30.10,West,260,4.0,18.0,74,0.00,,,0.00,VWS V14.00,2013-10-15 10:55:00,
2013-10-15 06:00:00,45.9,38.1,30.11,WNW,298,13.0,18.0,74,0.00,,,0.00,VWS V14.00,2013-10-15 11:00:00,
2013-10-15 06:05:00,45.8,38.0,30.11,West,268,12.0,15.0,74,0.00,,,0.00,VWS V14.00,2013-10-15 11:05:00,
2013-10-15 06:10:00,45.7,37.9,30.11,WNW,289,12.0,17.0,74,0.00,,,0.00,VWS V14.00,2013-10-15 11:10:00,
2013-10-15 06:15:00,45.6,37.8,30.11,WNW,283,8.0,17.0,74,0.00,,,0.00,VWS V14.00,2013-10-15 11:15:00,
2013-10-15 06:20:00,45.5,37.7,30.11,West,271,12.0,17.0,74,0.00,,,0.00,VWS V14.00,2013-10-15 11:20:00,
2013-10-15 06:25:00,45.3,37.5,30.11,NW,307,0.0,17.0,74,0.00,,,0.00,VWS V14.00,2013-10-15 11:25:00,
2013-10-15 06:30:00,45.2,37.1,30.12,WNW,289,4.0,22.0,73,0.00,,,0.00,VWS V14.00,2013-10-15 11:30:00,
2013-10-15 06:35:00,45.1,37.3,30.12,West,279,5.0,17.0,74,0.00,,,0.00,VWS V14.00,2013-10-15 11:35:00,
2013-10-15 06:40:00,45.0,36.9,30.12,WNW,286,10.0,19.0,73,0.00,,,0.00,VWS V14.00,2013-10-15 11:40:00,
2013-10-15 06:45:00,44.8,36.3,30.12,WNW,284,9.0,21.0,72,0.00,,,0.00,VWS V14.00,2013-10-15 11:45:00,
2013-10-15 06:50:00,44.6,35.8,30.13,WNW,290,10.0,21.0,71,0.00,,,0.00,VWS V14.00,2013-10-15 11:50:00,
2013-10-15 06:55:00,44.4,35.6,30.13,WSW,250,7.0,21.0,71,0.00,,,0.00,VWS V14.00,2013-10-15 11:55:00,
2013-10-15 07:00:00,44.2,35.4,30.13,West,262,8.0,22.0,71,0.00,,,0.00,VWS V14.00,2013-10-15 12:00:00,
2013-10-15 07:05:00,43.9,35.1,30.13,WNW,284,11.0,20.0,71,0.00,,,0.00,VWS V14.00,2013-10-15 12:05:00,
2013-10-15 07:10:00,43.6,34.8,30.13,West,262,12.0,20.0,71,0.00,,,0.00,VWS V14.00,2013-10-15 12:10:00,
2013-10-15 07:15:00,43.4,34.6,30.13,WNW,284,10.0,24.0,71,0.00,,,0.00,VWS V14.00,2013-10-15 12:15:00,
2013-10-15 07:20:00,43.2,34.8,30.13,WSW,256,5.0,24.0,72,0.00,,,0.00,VWS V14.00,2013-10-15 12:20:00,
2013-10-15 07:25:00,43.1,34.7,30.13,WNW,284,9.0,24.0,72,0.00,,,0.00,VWS V14.00,2013-10-15 12:25:00,
2013-10-15 07:30:00,42.9,34.8,30.13,West,275,5.0,24.0,73,0.00,,,0.00,VWS V14.00,2013-10-15 12:30:00,
2013-10-15 07:35:00,42.7,34.7,30.13,West,278,0.0,11.0,73,0.00,,,0.00,VWS V14.00,2013-10-15 12:35:00,
2013-10-15 07:40:00,42.5,34.8,30.13,West,273,4.0,13.0,74,0.00,,,0.00,VWS V14.00,2013-10-15 12:40:00,
2013-10-15 07:45:00,42.4,34.7,30.14,WSW,253,13.0,21.0,74,0.00,,,0.00,VWS V14.00,2013-10-15 12:45:00,
2013-10-15 07:50:00,42.4,34.7,30.14,WNW,286,11.0,21.0,74,0.00,,,0.00,VWS V14.00,2013-10-15 12:50:00,
2013-10-15 07:55:00,42.4,34.7,30.14,WSW,250,4.0,21.0,74,0.00,,,0.00,VWS V14.00,2013-10-15 12:55:00,
2013-10-15 08:00:00,42.4,34.7,30.15,WNW,286,3.0,21.0,74,0.00,,,0.00,VWS V14.00,2013-10-15 13:00:00,
2013-10-15 08:05:00,42.4,34.7,30.15,West,266,6.0,14.0,74,0.00,,,0.00,VWS V14.00,2013-10-15 13:05:00,
2013-10-15 08:10:00,42.4,34.4,30.15,SW,233,12.0,22.0,73,0.00,,,0.00,VWS V14.00,2013-10-15 13:10:00,
2013-10-15 08:15:00,42.5,34.5,30.15,WSW,242,12.0,22.0,73,0.00,,,0.00,VWS V14.00,2013-10-15 13:15:00,
2013-10-15 08:20:00,42.5,34.5,30.15,WSW,251,5.0,22.0,73,0.00,,,0.00,VWS V14.00,2013-10-15 13:20:00,
2013-10-15 08:25:00,42.5,34.5,30.15,WNW,296,3.0,22.0,73,0.00,,,0.00,VWS V14.00,2013-10-15 13:25:00,
2013-10-15 08:30:00,42.5,34.5,30.15,NW,306,7.0,22.0,73,0.00,,,0.00,VWS V14.00,2013-10-15 13:30:00,
2013-10-15 08:35:00,42.6,34.6,30.15,WNW,301,13.0,16.0,73,0.00,,,0.00,VWS V14.00,2013-10-15 13:35:00,
2013-10-15 08:40:00,42.7,34.3,30.15,WNW,284,6.0,24.0,72,0.00,,,0.00,VWS V14.00,2013-10-15 13:40:00,
2013-10-15 08:45:00,42.8,34.4,30.16,WSW,242,20.0,24.0,72,0.00,,,0.00,VWS V14.00,2013-10-15 13:45:00,
2013-10-15 08:50:00,42.9,34.5,30.16,West,271,16.0,24.0,72,0.00,,,0.00,VWS V14.00,2013-10-15 13:50:00,
2013-10-15 08:55:00,42.9,34.5,30.16,West,279,0.0,24.0,72,0.00,,,0.00,VWS V14.00,2013-10-15 13:55:00,
2013-10-15 09:00:00,42.9,34.5,30.16,WNW,284,6.0,24.0,72,0.00,,,0.00,VWS V14.00,2013-10-15 14:00:00,
2013-10-15 09:05:00,42.9,34.8,30.16,West,268,5.0,14.0,73,0.00,,,0.00,VWS V14.00,2013-10-15 14:05:00,
2013-10-15 09:10:00,42.9,34.8,30.16,WNW,294,8.0,16.0,73,0.00,,,0.00,VWS V14.00,2013-10-15 14:10:00,
2013-10-15 09:15:00,43.0,35.0,30.17,WNW,300,8.0,23.0,73,0.00,,,0.00,VWS V14.00,2013-10-15 14:15:00,
2013-10-15 09:20:00,43.4,35.3,30.17,WNW,296,4.0,23.0,73,0.00,,,0.00,VWS V14.00,2013-10-15 14:20:00,
2013-10-15 09:25:00,43.9,36.2,30.17,West,269,13.0,23.0,74,0.00,,,0.00,VWS V14.00,2013-10-15 14:25:00,
2013-10-15 09:30:00,44.3,36.2,30.17,West,275,7.0,23.0,73,0.00,,,0.00,VWS V14.00,2013-10-15 14:30:00,
2013-10-15 09:35:00,44.5,36.4,30.17,West,265,18.0,23.0,73,0.00,,,0.00,VWS V14.00,2013-10-15 14:35:00,
2013-10-15 09:40:00,44.5,36.4,30.17,West,277,14.0,23.0,73,0.00,,,0.00,VWS V14.00,2013-10-15 14:40:00,
2013-10-15 09:44:00,44.6,36.5,30.17,West,261,9.0,23.0,73,0.00,,,0.00,VWS V14.00,2013-10-15 14:44:00,
2013-10-15 09:49:00,44.6,36.5,30.17,West,271,9.0,23.0,73,0.00,,,0.00,VWS V14.00,2013-10-15 14:49:00,
2013-10-15 09:54:00,44.6,36.5,30.17,WNW,302,15.0,23.0,73,0.00,,,0.00,VWS V14.00,2013-10-15 14:54:00,
2013-10-15 09:59:00,44.6,35.8,30.18,WSW,254,9.0,23.0,71,0.00,,,0.00,VWS V14.00,2013-10-15 14:59:00,
2013-10-15 10:04:00,44.8,37.4,30.18,West,259,7.0,17.0,75,0.00,,,0.00,VWS V14.00,2013-10-15 15:04:00,
2013-10-15 10:09:00,45.0,36.5,30.18,NW,306,11.0,17.0,72,0.00,,,0.00,VWS V14.00,2013-10-15 15:09:00,
2013-10-15 10:14:00,45.0,36.9,30.19,WNW,284,12.0,21.0,73,0.00,,,0.00,VWS V14.00,2013-10-15 15:14:00,
2013-10-15 10:19:00,45.1,36.3,30.19,NW,304,10.0,24.0,71,0.00,,,0.00,VWS V14.00,2013-10-15 15:19:00,
2013-10-15 10:24:00,45.0,36.5,30.19,West,278,17.0,24.0,72,0.00,,,0.00,VWS V14.00,2013-10-15 15:24:00,
2013-10-15 10:29:00,45.2,36.4,30.19,West,281,13.0,24.0,71,0.00,,,0.00,VWS V14.00,2013-10-15 15:29:00,
2013-10-15 10:34:00,45.1,35.9,30.19,WNW,299,7.0,18.0,70,0.00,,,0.00,VWS V14.00,2013-10-15 15:34:00,
2013-10-15 10:39:00,45.3,36.8,30.19,NW,304,7.0,22.0,72,0.00,,,0.00,VWS V14.00,2013-10-15 15:39:00,
2013-10-15 10:44:00,45.4,36.6,30.19,WNW,287,7.0,25.0,71,0.00,,,0.00,VWS V14.00,2013-10-15 15:44:00,
2013-10-15 10:49:00,45.6,36.8,30.20,NW,316,11.0,25.0,71,0.00,,,0.00,VWS V14.00,2013-10-15 15:49:00,
2013-10-15 10:54:00,45.9,37.0,30.20,NNW,346,10.0,25.0,71,0.00,,,0.00,VWS V14.00,2013-10-15 15:54:00,
2013-10-15 10:59:00,45.8,36.6,30.20,SW,229,5.0,25.0,70,0.00,,,0.00,VWS V14.00,2013-10-15 15:59:00,
2013-10-15 11:04:00,45.8,37.0,30.20,WNW,288,7.0,20.0,71,0.00,,,0.00,VWS V14.00,2013-10-15 16:04:00,
2013-10-15 11:09:00,46.2,37.7,30.20,WNW,282,5.0,20.0,72,0.00,,,0.00,VWS V14.00,2013-10-15 16:09:00,
2013-10-15 11:14:00,46.3,37.1,30.20,West,267,11.0,20.0,70,0.00,,,0.00,VWS V14.00,2013-10-15 16:14:00,
2013-10-15 11:19:00,46.5,37.6,30.20,NW,306,15.0,20.0,71,0.00,,,0.00,VWS V14.00,2013-10-15 16:19:00,
2013-10-15 11:24:00,46.6,37.3,30.21,West,267,0.0,20.0,70,0.00,,,0.00,VWS V14.00,2013-10-15 16:24:00,
2013-10-15 11:29:00,46.6,37.0,30.21,West,272,8.0,22.0,69,0.00,,,0.00,VWS V14.00,2013-10-15 16:29:00,
2013-10-15 11:34:00,46.4,36.8,30.21,WNW,283,17.0,20.0,69,0.00,,,0.00,VWS V14.00,2013-10-15 16:34:00,
2013-10-15 11:39:00,46.6,37.7,30.21,WNW,294,12.0,23.0,71,0.00,,,0.00,VWS V14.00,2013-10-15 16:39:00,
2013-10-15 11:44:00,46.6,36.6,30.21,WNW,290,17.0,25.0,68,0.00,,,0.00,VWS V14.00,2013-10-15 16:44:00,
2013-10-15 11:49:00,46.5,36.5,30.21,WNW,302,13.0,26.0,68,0.00,,,0.00,VWS V14.00,2013-10-15 16:49:00,
2013-10-15 11:54:00,46.3,37.1,30.22,WNW,283,15.0,26.0,70,0.00,,,0.00,VWS V14.00,2013-10-15 16:54:00,
2013-10-15 11:59:00,46.4,37.2,30.22,West,271,15.0,26.0,70,0.00,,,0.00,VWS V14.00,2013-10-15 16:59:00,
2013-10-15 12:04:00,46.4,36.8,30.21,WNW,289,12.0,20.0,69,0.00,,,0.00,VWS V14.00,2013-10-15 17:04:00,
2013-10-15 12:09:00,46.6,37.0,30.21,WSW,258,7.0,25.0,69,0.00,,,0.00,VWS V14.00,2013-10-15 17:09:00,
2013-10-15 12:14:00,46.9,37.3,30.21,NW,317,7.0,25.0,69,0.00,,,0.00,VWS V14.00,2013-10-15 17:14:00,
2013-10-15 12:19:00,47.4,37.8,30.21,West,281,10.0,25.0,69,0.00,,,0.00,VWS V14.00,2013-10-15 17:19:00,
2013-10-15 12:24:00,48.0,38.7,30.22,NW,326,10.0,25.0,70,0.00,,,0.00,VWS V14.00,2013-10-15 17:24:00,
2013-10-15 12:29:00,48.1,37.7,30.22,West,280,2.0,25.0,67,0.00,,,0.00,VWS V14.00,2013-10-15 17:29:00,
2013-10-15 12:34:00,48.1,37.7,30.22,West,263,16.0,21.0,67,0.00,,,0.00,VWS V14.00,2013-10-15 17:34:00,
2013-10-15 12:39:00,47.9,37.5,30.22,WNW,288,11.0,22.0,67,0.00,,,0.00,VWS V14.00,2013-10-15 17:39:00,
2013-10-15 12:44:00,48.0,38.0,30.22,NW,306,5.0,22.0,68,0.00,,,0.00,VWS V14.00,2013-10-15 17:44:00,
2013-10-15 12:49:00,48.3,38.6,30.22,WNW,284,13.0,23.0,69,0.00,,,0.00,VWS V14.00,2013-10-15 17:49:00,
2013-10-15 12:54:00,48.3,37.9,30.22,West,274,13.0,23.0,67,0.00,,,0.00,VWS V14.00,2013-10-15 17:54:00,
2013-10-15 12:59:00,48.2,37.8,30.22,NW,304,15.0,23.0,67,0.00,,,0.00,VWS V14.00,2013-10-15 17:59:00,
2013-10-15 13:04:00,48.2,37.8,30.22,WNW,290,19.0,23.0,67,0.00,,,0.00,VWS V14.00,2013-10-15 18:04:00,
2013-10-15 13:09:00,48.0,37.6,30.21,NW,318,8.0,28.0,67,0.00,,,0.00,VWS V14.00,2013-10-15 18:09:00,
2013-10-15 13:14:00,48.2,38.9,30.21,WNW,291,14.0,28.0,70,0.00,,,0.00,VWS V14.00,2013-10-15 18:14:00,
2013-10-15 13:19:00,48.3,37.9,30.21,West,281,10.0,28.0,67,0.00,,,0.00,VWS V14.00,2013-10-15 18:19:00,
2013-10-15 13:24:00,48.1,37.7,30.21,NW,313,5.0,28.0,67,0.00,,,0.00,VWS V14.00,2013-10-15 18:24:00,
2013-10-15 13:29:00,48.1,38.0,30.21,West,263,13.0,28.0,68,0.00,,,0.00,VWS V14.00,2013-10-15 18:29:00,
2013-10-15 13:34:00,48.0,37.6,30.21,WNW,290,17.0,24.0,67,0.00,,,0.00,VWS V14.00,2013-10-15 18:34:00,
2013-10-15 13:39:00,48.2,38.5,30.21,WNW,283,13.0,24.0,69,0.00,,,0.00,VWS V14.00,2013-10-15 18:39:00,
2013-10-15 13:44:00,48.5,38.4,30.21,West,264,10.0,24.0,68,0.00,,,0.00,VWS V14.00,2013-10-15 18:44:00,
2013-10-15 13:49:00,48.7,38.2,30.20,WNW,293,23.0,26.0,67,0.00,,,0.00,VWS V14.00,2013-10-15 18:49:00,
2013-10-15 13:54:00,48.6,37.8,30.20,WNW,292,16.0,26.0,66,0.00,,,0.00,VWS V14.00,2013-10-15 18:54:00,
2013-10-15 13:59:00,48.5,38.1,30.21,WSW,237,14.0,26.0,67,0.00,,,0.00,VWS V14.00,2013-10-15 18:59:00,
2013-10-15 14:04:00,48.4,38.3,30.21,WNW,300,7.0,27.0,68,0.00,,,0.00,VWS V14.00,2013-10-15 19:04:00,
2013-10-15 14:09:00,48.5,38.4,30.20,WNW,288,22.0,27.0,68,0.00,,,0.00,VWS V14.00,2013-10-15 19:09:00,
2013-10-15 14:14:00,48.3,37.9,30.20,WSW,258,7.0,27.0,67,0.00,,,0.00,VWS V14.00,2013-10-15 19:14:00,
2013-10-15 14:19:00,48.2,37.8,30.21,West,273,10.0,27.0,67,0.00,,,0.00,VWS V14.00,2013-10-15 19:19:00,
2013-10-15 14:24:00,47.9,37.9,30.21,West,275,13.0,28.0,68,0.00,,,0.00,VWS V14.00,2013-10-15 19:24:00,
2013-10-15 14:29:00,47.8,38.1,30.21,WNW,289,10.0,28.0,69,0.00,,,0.00,VWS V14.00,2013-10-15 19:29:00,
2013-10-15 14:34:00,47.9,38.2,30.21,WNW,291,15.0,20.0,69,0.00,,,0.00,VWS V14.00,2013-10-15 19:34:00,
2013-10-15 14:39:00,47.7,37.7,30.21,West,281,18.0,27.0,68,0.00,,,0.00,VWS V14.00,2013-10-15 19:39:00,
2013-10-15 14:44:00,47.6,37.6,30.21,WNW,283,15.0,27.0,68,0.00,,,0.00,VWS V14.00,2013-10-15 19:44:00,
2013-10-15 14:49:00,47.6,38.0,30.21,West,261,7.0,27.0,69,0.00,,,0.00,VWS V14.00,2013-10-15 19:49:00,
2013-10-15 14:54:00,47.8,38.9,30.21,WNW,291,17.0,27.0,71,0.00,,,0.00,VWS V14.00,2013-10-15 19:54:00,
2013-10-15 14:59:00,48.0,38.0,30.21,WNW,292,10.0,27.0,68,0.00,,,0.00,VWS V14.00,2013-10-15 19:59:00,
2013-10-15 15:04:00,47.9,37.9,30.21,West,275,17.0,21.0,68,0.00,,,0.00,VWS V14.00,2013-10-15 20:04:00,
2013-10-15 15:09:00,47.8,37.8,30.21,NW,307,13.0,21.0,68,0.00,,,0.00,VWS V14.00,2013-10-15 20:09:00,
2013-10-15 15:14:00,47.7,37.7,30.22,WNW,286,5.0,21.0,68,0.00,,,0.00,VWS V14.00,2013-10-15 20:14:00,
2013-10-15 15:19:00,47.7,38.4,30.22,WNW,302,12.0,23.0,70,0.00,,,0.00,VWS V14.00,2013-10-15 20:19:00,
2013-10-15 15:24:00,47.8,38.1,30.22,WNW,295,9.0,23.0,69,0.00,,,0.00,VWS V14.00,2013-10-15 20:24:00,
2013-10-15 15:29:00,47.7,37.7,30.22,WNW,296,9.0,23.0,68,0.00,,,0.00,VWS V14.00,2013-10-15 20:29:00,
2013-10-15 15:34:00,47.6,38.0,30.22,NW,323,11.0,21.0,69,0.00,,,0.00,VWS V14.00,2013-10-15 20:34:00,
2013-10-15 15:39:00,47.5,37.5,30.22,NE,53,14.0,22.0,68,0.00,,,0.00,VWS V14.00,2013-10-15 20:39:00,
2013-10-15 15:44:00,47.5,38.6,30.22,NW,306,5.0,22.0,71,0.00,,,0.00,VWS V14.00,2013-10-15 20:44:00,
2013-10-15 15:49:00,47.8,38.1,30.22,WSW,256,12.0,22.0,69,0.00,,,0.00,VWS V14.00,2013-10-15 20:49:00,
2013-10-15 15:54:00,47.6,38.0,30.22,NNW,327,4.0,22.0,69,0.00,,,0.00,VWS V14.00,2013-10-15 20:54:00,
2013-10-15 15:59:00,47.4,37.8,30.23,WNW,290,16.0,22.0,69,0.00,,,0.00,VWS V14.00,2013-10-15 20:59:00,
2013-10-15 16:04:00,47.3,37.7,30.23,WNW,285,17.0,20.0,69,0.00,,,0.00,VWS V14.00,2013-10-15 21:04:00,
2013-10-15 16:08:00,47.2,37.9,30.23,WNW,296,6.0,21.0,70,0.00,,,0.00,VWS V14.00,2013-10-15 21:08:00,
2013-10-15 16:13:00,47.4,37.8,30.23,West,267,16.0,25.0,69,0.00,,,0.00,VWS V14.00,2013-10-15 21:13:00,
2013-10-15 16:18:00,47.2,37.6,30.23,WNW,290,13.0,25.0,69,0.00,,,0.00,VWS V14.00,2013-10-15 21:18:00,
2013-10-15 16:23:00,47.2,37.6,30.23,WNW,300,9.0,25.0,69,0.00,,,0.00,VWS V14.00,2013-10-15 21:23:00,
2013-10-15 16:28:00,47.1,37.5,30.23,NW,312,6.0,25.0,69,0.00,,,0.00,VWS V14.00,2013-10-15 21:28:00,
2013-10-15 16:33:00,47.1,37.8,30.23,WNW,295,13.0,16.0,70,0.00,,,0.00,VWS V14.00,2013-10-15 21:33:00,
2013-10-15 16:38:00,47.5,38.6,30.23,West,281,17.0,23.0,71,0.00,,,0.00,VWS V14.00,2013-10-15 21:38:00,
2013-10-15 16:43:00,47.5,37.8,30.23,WNW,295,15.0,23.0,69,0.00,,,0.00,VWS V14.00,2013-10-15 21:43:00,
2013-10-15 16:48:00,47.4,37.8,30.23,West,281,1.0,23.0,69,0.00,,,0.00,VWS V14.00,2013-10-15 21:48:00,
2013-10-15 16:53:00,47.4,37.8,30.23,WNW,295,12.0,23.0,69,0.00,,,0.00,VWS V14.00,2013-10-15 21:53:00,
2013-10-15 16:58:00,47.2,37.6,30.23,West,275,14.0,23.0,69,0.00,,,0.00,VWS V14.00,2013-10-15 21:58:00,
2013-10-15 17:03:00,47.3,38.4,30.23,WNW,291,5.0,19.0,71,0.00,,,0.00,VWS V14.00,2013-10-15 22:03:00,
2013-10-15 17:08:00,47.3,37.7,30.23,WSW,240,10.0,21.0,69,0.00,,,0.00,VWS V14.00,2013-10-15 22:08:00,
2013-10-15 17:13:00,47.1,37.8,30.23,WNW,302,3.0,23.0,70,0.00,,,0.00,VWS V14.00,2013-10-15 22:13:00,
2013-10-15 17:18:00,47.0,37.7,30.23,WNW,289,5.0,23.0,70,0.00,,,0.00,VWS V14.00,2013-10-15 22:18:00,
2013-10-15 17:23:00,46.9,37.6,30.23,WNW,290,11.0,23.0,70,0.00,,,0.00,VWS V14.00,2013-10-15 22:23:00,
2013-10-15 17:28:00,46.9,38.0,30.23,WNW,289,16.0,23.0,71,0.00,,,0.00,VWS V14.00,2013-10-15 22:28:00,
2013-10-15 17:33:00,47.1,38.2,30.23,NW,307,15.0,22.0,71,0.00,,,0.00,VWS V14.00,2013-10-15 22:33:00,
2013-10-15 17:38:00,46.9,37.6,30.23,WNW,294,6.0,22.0,70,0.00,,,0.00,VWS V14.00,2013-10-15 22:38:00,
2013-10-15 17:43:00,46.7,37.5,30.23,West,280,9.0,22.0,70,0.00,,,0.00,VWS V14.00,2013-10-15 22:43:00,
2013-10-15 17:48:00,46.6,37.7,30.24,WNW,287,9.0,22.0,71,0.00,,,0.00,VWS V14.00,2013-10-15 22:48:00,
2013-10-15 17:53:00,46.5,37.6,30.24,WNW,302,15.0,22.0,71,0.00,,,0.00,VWS V14.00,2013-10-15 22:53:00,
2013-10-15 17:58:00,46.8,39.0,30.24,NW,317,0.0,22.0,74,0.00,,,0.00,VWS V14.00,2013-10-15 22:58:00,
2013-10-15 18:03:00,46.8,38.3,30.24,NW,309,10.0,13.0,72,0.00,,,0.00,VWS V14.00,2013-10-15 23:03:00,
2013-10-15 18:08:00,46.6,37.7,30.24,West,260,18.0,18.0,71,0.00,,,0.00,VWS V14.00,2013-10-15 23:08:00,
2013-10-15 18:13:00,46.4,37.5,30.24,WNW,292,6.0,21.0,71,0.00,,,0.00,VWS V14.00,2013-10-15 23:13:00,
2013-10-15 18:18:00,46.2,37.3,30.24,West,273,6.0,21.0,71,0.00,,,0.00,VWS V14.00,2013-10-15 23:18:00,
2013-10-15 18:23:00,46.4,38.9,30.24,WNW,290,2.0,21.0,75,0.00,,,0.00,VWS V14.00,2013-10-15 23:23:00,
2013-10-15 18:28:00,46.5,38.0,30.25,WNW,288,7.0,21.0,72,0.00,,,0.00,VWS V14.00,2013-10-15 23:28:00,
2013-10-15 18:33:00,46.3,37.4,30.25,West,281,5.0,17.0,71,0.00,,,0.00,VWS V14.00,2013-10-15 23:33:00,
2013-10-15 18:38:00,46.2,38.0,30.25,WNW,299,5.0,17.0,73,0.00,,,0.00,VWS V14.00,2013-10-15 23:38:00,
2013-10-15 18:43:00,46.2,37.7,30.25,North,9,5.0,17.0,72,0.00,,,0.00,VWS V14.00,2013-10-15 23:43:00,
2013-10-15 18:48:00,46.1,37.6,30.25,NW,305,6.0,17.0,72,0.00,,,0.00,VWS V14.00,2013-10-15 23:48:00,
2013-10-15 18:53:00,46.0,37.5,30.26,WNW,284,9.0,17.0,72,0.00,,,0.00,VWS V14.00,2013-10-15 23:53:00,
2013-10-15 18:58:00,45.9,37.4,30.25,NW,305,9.0,19.0,72,0.00,,,0.00,VWS V14.00,2013-10-15 23:58:00,
2013-10-15 19:03:00,46.1,38.3,30.26,WNW,292,2.0,10.0,74,0.00,,,0.00,VWS V14.00,2013-10-16 00:03:00,
2013-10-15 19:08:00,46.0,37.5,30.26,WNW,288,14.0,17.0,72,0.00,,,0.00,VWS V14.00,2013-10-16 00:08:00,
2013-10-15 19:13:00,45.9,37.4,30.26,West,276,7.0,20.0,72,0.00,,,0.00,VWS V14.00,2013-10-16 00:13:00,
2013-10-15 19:18:00,45.8,37.3,30.26,WNW,288,12.0,20.0,72,0.00,,,0.00,VWS V14.00,2013-10-16 00:18:00,
2013-10-15 19:23:00,45.8,37.3,30.27,WNW,302,10.0,20.0,72,0.00,,,0.00,VWS V14.00,2013-10-16 00:23:00,
2013-10-15 19:28:00,45.7,37.2,30.27,WNW,293,3.0,20.0,72,0.00,,,0.00,VWS V14.00,2013-10-16 00:28:00,
2013-10-15 19:33:00,45.8,38.3,30.27,WNW,283,15.0,15.0,75,0.00,,,0.00,VWS V14.00,2013-10-16 00:33:00,
2013-10-15 19:38:00,46.0,37.8,30.27,WSW,250,3.0,15.0,73,0.00,,,0.00,VWS V14.00,2013-10-16 00:38:00,
2013-10-15 19:43:00,45.8,37.3,30.27,WNW,296,9.0,15.0,72,0.00,,,0.00,VWS V14.00,2013-10-16 00:43:00,
2013-10-15 19:48:00,45.7,37.5,30.28,West,276,8.0,15.0,73,0.00,,,0.00,VWS V14.00,2013-10-16 00:48:00,
2013-10-15 19:53:00,45.6,37.5,30.28,WNW,284,11.0,16.0,73,0.00,,,0.00,VWS V14.00,2013-10-16 00:53:00,
2013-10-15 19:58:00,45.7,37.9,30.28,WNW,298,13.0,19.0,74,0.00,,,0.00,VWS V14.00,2013-10-16 00:58:00,
2013-10-15 20:03:00,45.6,37.5,30.28,NW,312,0.0,11.0,73,0.00,,,0.00,VWS V14.00,2013-10-16 01:03:00,
2013-10-15 20:08:00,45.5,37.4,30.28,NW,321,2.0,17.0,73,0.00,,,0.00,VWS V14.00,2013-10-16 01:08:00,
2013-10-15 20:13:00,45.4,37.3,30.28,West,281,6.0,17.0,73,0.00,,,0.00,VWS V14.00,2013-10-16 01:13:00,
2013-10-15 20:18:00,45.3,37.2,30.28,WNW,296,10.0,18.0,73,0.00,,,0.00,VWS V14.00,2013-10-16 01:18:00,
2013-10-15 20:23:00,45.3,37.2,30.28,WSW,257,9.0,18.0,73,0.00,,,0.00,VWS V14.00,2013-10-16 01:23:00,
2013-10-15 20:28:00,45.2,37.4,30.28,NW,326,9.0,18.0,74,0.00,,,0.00,VWS V14.00,2013-10-16 01:28:00,
2013-10-15 20:33:00,45.2,37.8,30.28,West,275,12.0,15.0,75,0.00,,,0.00,VWS V14.00,2013-10-16 01:33:00,
2013-10-15 20:38:00,45.4,38.0,30.29,WNW,294,8.0,17.0,75,0.00,,,0.00,VWS V14.00,2013-10-16 01:38:00,
2013-10-15 20:43:00,45.3,37.5,30.29,NW,307,5.0,17.0,74,0.00,,,0.00,VWS V14.00,2013-10-16 01:43:00,
2013-10-15 20:48:00,45.2,37.4,30.29,WNW,290,9.0,17.0,74,0.00,,,0.00,VWS V14.00,2013-10-16 01:48:00,
2013-10-15 20:53:00,45.1,37.3,30.29,WNW,288,6.0,17.0,74,0.00,,,0.00,VWS V14.00,2013-10-16 01:53:00,
2013-10-15 20:58:00,45.2,37.8,30.29,WNW,295,8.0,17.0,75,0.00,,,0.00,VWS V14.00,2013-10-16 01:58:00,
2013-10-15 21:03:00,45.1,37.7,30.29,West,269,13.0,19.0,75,0.00,,,0.00,VWS V14.00,2013-10-16 02:03:00,
2013-10-15 21:08:00,44.9,37.8,30.30,NW,304,7.0,23.0,76,0.00,,,0.00,VWS V14.00,2013-10-16 02:08:00,
2013-10-15 21:13:00,44.7,37.9,30.30,West,273,7.0,23.0,77,0.00,,,0.00,VWS V14.00,2013-10-16 02:13:00,
2013-10-15 21:18:00,44.5,37.8,30.30,WNW,300,0.0,23.0,77,0.00,,,0.00,VWS V14.00,2013-10-16 02:18:00,
2013-10-15 21:23:00,44.5,38.1,30.30,West,279,17.0,23.0,78,0.00,,,0.00,VWS V14.00,2013-10-16 02:23:00,
2013-10-15 21:28:00,44.3,37.9,30.30,WNW,301,0.0,23.0,78,0.00,,,0.00,VWS V14.00,2013-10-16 02:28:00,
2013-10-15 21:33:00,44.6,39.1,30.30,West,265,7.0,11.0,81,0.00,,,0.00,VWS V14.00,2013-10-16 02:33:00,
2013-10-15 21:38:00,44.5,38.7,30.30,WNW,292,6.0,16.0,80,0.00,,,0.00,VWS V14.00,2013-10-16 02:38:00,
2013-10-15 21:43:00,44.3,38.2,30.30,West,279,0.0,16.0,79,0.00,,,0.00,VWS V14.00,2013-10-16 02:43:00,
2013-10-15 21:48:00,44.2,38.4,30.30,WNW,289,0.0,16.0,80,0.00,,,0.00,VWS V14.00,2013-10-16 02:48:00,
2013-10-15 21:53:00,44.2,38.4,30.31,WNW,298,4.0,16.0,80,0.00,,,0.00,VWS V14.00,2013-10-16 02:53:00,
2013-10-15 21:57:00,44.3,38.8,30.31,NW,323,10.0,16.0,81,0.00,,,0.00,VWS V14.00,2013-10-16 02:57:00,
2013-10-15 22:02:00,44.1,38.3,30.31,NW,306,3.0,11.0,80,0.00,,,0.00,VWS V14.00,2013-10-16 03:02:00,
2013-10-15 22:07:00,44.1,38.3,30.31,West,281,5.0,11.0,80,0.00,,,0.00,VWS V14.00,2013-10-16 03:07:00,
2013-10-15 22:12:00,44.0,38.2,30.31,WNW,287,5.0,13.0,80,0.00,,,0.00,VWS V14.00,2013-10-16 03:12:00,
2013-10-15 22:17:00,44.0,38.2,30.31,NNW,331,0.0,15.0,80,0.00,,,0.00,VWS V14.00,2013-10-16 03:17:00,
2013-10-15 22:22:00,44.0,38.2,30.31,WNW,292,15.0,17.0,80,0.00,,,0.00,VWS V14.00,2013-10-16 03:22:00,
2013-10-15 22:27:00,44.0,38.5,30.31,West,275,12.0,17.0,81,0.00,,,0.00,VWS V14.00,2013-10-16 03:27:00,
2013-10-15 22:32:00,44.3,39.2,30.31,WNW,285,2.0,12.0,82,0.00,,,0.00,VWS V14.00,2013-10-16 03:32:00,
2013-10-15 22:37:00,44.2,38.8,30.31,WNW,284,9.0,14.0,81,0.00,,,0.00,VWS V14.00,2013-10-16 03:37:00,
2013-10-15 22:42:00,44.0,38.5,30.31,NNW,336,0.0,14.0,81,0.00,,,0.00,VWS V14.00,2013-10-16 03:42:00,
2013-10-15 22:47:00,44.0,38.5,30.31,West,271,6.0,14.0,81,0.00,,,0.00,VWS V14.00,2013-10-16 03:47:00,
2013-10-15 22:52:00,44.2,39.4,30.31,NNW,329,0.0,14.0,83,0.00,,,0.00,VWS V14.00,2013-10-16 03:52:00,
2013-10-15 22:57:00,44.1,39.0,30.31,WNW,295,9.0,14.0,82,0.00,,,0.00,VWS V14.00,2013-10-16 03:57:00,
2013-10-15 23:01:00,44.0,38.9,30.31,WNW,298,10.0,11.0,82,0.00,,,0.00,VWS V14.00,2013-10-16 04:01:00,
2013-10-15 23:06:00,43.8,39.0,30.32,West,268,0.0,14.0,83,0.00,,,0.00,VWS V14.00,2013-10-16 04:06:00,
2013-10-15 23:11:00,43.6,38.8,30.31,WNW,294,5.0,14.0,83,0.00,,,0.00,VWS V14.00,2013-10-16 04:11:00,
2013-10-15 23:16:00,43.6,38.8,30.31,West,277,2.0,14.0,83,0.00,,,0.00,VWS V14.00,2013-10-16 04:16:00,
2013-10-15 23:21:00,43.6,38.8,30.31,WNW,292,0.0,14.0,83,0.00,,,0.00,VWS V14.00,2013-10-16 04:21:00,
2013-10-15 23:26:00,43.6,38.8,30.32,NW,310,3.0,14.0,83,0.00,,,0.00,VWS V14.00,2013-10-16 04:26:00,
2013-10-15 23:31:00,44.0,39.8,30.32,West,279,5.0,7.0,85,0.00,,,0.00,VWS V14.00,2013-10-16 04:31:00,
2013-10-15 23:36:00,43.9,39.1,30.31,WNW,292,7.0,13.0,83,0.00,,,0.00,VWS V14.00,2013-10-16 04:36:00,
2013-10-15 23:41:00,43.8,39.0,30.31,WNW,292,0.0,13.0,83,0.00,,,0.00,VWS V14.00,2013-10-16 04:41:00,
2013-10-15 23:46:00,43.7,38.9,30.31,NW,305,0.0,13.0,83,0.00,,,0.00,VWS V14.00,2013-10-16 04:46:00,
2013-10-15 23:51:00,43.9,39.4,30.31,West,271,0.0,13.0,84,0.00,,,0.00,VWS V14.00,2013-10-16 04:51:00,
2013-10-15 23:56:00,43.9,39.1,30.31,WNW,290,0.0,13.0,83,0.00,,,0.00,VWS V14.00,2013-10-16 04:56:00,